Jordan, MT

3:28 AM MDT on October 26, 2014 (GMT -0600)
Jordan | Change Station
CLOSE
Current Station
Airport
Location: Jordan,
Elevation: 2661 ft
Nearby Weather Stations
Active Advisory: Lake Wind Advisory

Elev 2661 ft 47.33 °N, 106.95 °W | Updated 40 minutes ago

Partly Cloudy
Partly Cloudy
41 °F
Feels Like 41 °F
N
0
Wind Variable Wind from North
Gusts 21 mph

Today
High -- | Low -- °F
--% Chance of Precip.
Yesterday
High -- | Low -- °F
Precip. -- in
7:42 AM 5:59 PM
Waxing Crescent, 7% visible
Pressure 29.53 in
Visibility -9999.0 miles
Clouds
Dew Point 33 °F
Humidity 73%
Rainfall 0.00 in
Snow Depth Not available.
UV Not available.
Pollen 1.90 out of 12
Air Quality Not available.
Flu Activity No Activity
METAR KJDN 260848Z AUTO 00000KT 05/01 A2953 RMK AO1 SLP999 T00500006 56019

More Conditions Fewer Conditions

Pressure 29.53 in
Visibility -9999.0 miles
Clouds
Dew Point 33 °F
Humidity 73%
Rainfall 0.00 in
Snow Depth Not available.
UV Not available.
Pollen 1.90 out of 12
Air Quality Not available.
Flu Activity No Activity
METAR KJDN 260848Z AUTO 00000KT 05/01 A2953 RMK AO1 SLP999 T00500006 56019

More Conditions Fewer Conditions

10-Day Weather Forecast

Almanac

Astronomy

Oct. 26, 2014 Rise Set
Actual Time 7:42 AM MDT 5:59 PM MDT
Civil Twilight 7:10 AM MDT 6:31 PM MDT
Nautical Twilight 6:34 AM MDT 7:07 PM MDT
Astronomical Twilight 5:58 AM MDT 7:42 PM MDT
Moon 10:30 AM MDT 8:05 PM MDT
Length of Visible Light 11h 20m
Length of Day
10h 17m
Tomorrow will be 3m 11s shorter.
Waxing Crescent, 7% of the Moon is Illuminated
Today
Waxing Crescent
Oct 30
First Quarter
Nov 6
Full
Nov 14
Last Quarter
Nov 22
New

Today's Extremes

State Highs State Lows

Community

WunderPhotos

Upload Photos

1,765,130 photos uploaded!

Nearby

Snow Depth

Station Depth Elevation
Crystal Lake 0 in 6050 ft
Daisy Peak 0 in 7600 ft
Spur Park 0 in 8100 ft
Onion Park 0 in 7410 ft
Stringer Creek 0 in 6550 ft

Earthquake Activity

City Distance Mag. Time & Date
No recent earthquake activity has been reported nearby.
Minimum magnitude displayed is 2.5.

Coastal Water Temperatures

Place Temperature
No Stations Reporting

Nearby Weather Stations